U33KX 11.00 56.11460 -133.1210 0.000 0.000 20200405_1725 MesoWest U33K Whale Pass AK US USARRAY current weather conditions

sailwx.info

Wind from 081 at 1 knots gusting 3

Air temperature 2.1° C
Dewpoint -3.1° C

Last reported at 2020-Apr-05 18:30 UTC.
Time now 2020-Apr-05 19:41 UTC

Location: N 56°07' W 133°07'.
View on Google Maps.

See reports from other nearby stations

  
Tides and Currents Weather Stations Pressure Air Temp Water Temp Dewpoint Dewpoint Depression Visibility Wind Speed Wind Dir Waves Ship Positions
date/time (UTC)wind fromknots sea level pressurealtimeterstation pressurevisibilityair tempwater tempwave heightnotes
2020-Apr-05 18:30 081 1 gusting 3 2.1
2020-Apr-05 18:25
2020-Apr-05 18:05 -0.0
2020-Apr-05 17:55
2020-Apr-05 17:40 -0.9
2020-Apr-05 17:25
2020-Apr-05 17:05 117 0 gusting 0 -1.8
2020-Apr-05 16:55 230 0 gusting 0 -1.9
2020-Apr-05 16:40 -2.3
2020-Apr-05 16:25 305 0 gusting 0 -2.6
2020-Apr-05 16:05 134 0 gusting 0 -2.9
2020-Apr-05 15:55
2020-Apr-05 15:40 -3.3
2020-Apr-05 15:25
2020-Apr-05 15:05 276 0 gusting 0 -3.7
2020-Apr-05 14:55
2020-Apr-05 14:40 -3.9
2020-Apr-05 14:25
2020-Apr-05 14:05 090 0 gusting 0 -3.8
2020-Apr-05 13:55
2020-Apr-05 13:40 -3.6
2020-Apr-05 13:25
2020-Apr-05 13:05 221 0 gusting 0 -3.6
2020-Apr-05 12:55
2020-Apr-05 12:40 -3.4
2020-Apr-05 12:25
2020-Apr-05 12:05 288 0 gusting 0 -3.2
2020-Apr-05 11:55
2020-Apr-05 11:35 309 0 gusting 0 -3.0
2020-Apr-05 11:20 228 0 gusting 0 -2.9
2020-Apr-05 01:35
2020-Apr-05 01:30
2020-Apr-05 01:05 220 2 gusting 5 7.3
2020-Apr-05 00:50 262 2 gusting 4 7.1
2020-Apr-05 00:35 256 2 gusting 6 6.9
2020-Apr-05 00:25
2020-Apr-05 00:05 237
2020-Apr-04 23:40 096
2020-Apr-04 23:20
2020-Apr-04 23:05 305 1 gusting 3 5.8
2020-Apr-04 22:55
2020-Apr-04 22:40 073
2020-Apr-04 22:20
2020-Apr-04 22:05 149 1 gusting 5 6.4
2020-Apr-04 21:55
2020-Apr-04 21:35 5.7
2020-Apr-04 21:30
2020-Apr-04 21:05 319 0 gusting 1 5.3
2020-Apr-04 20:55
2020-Apr-04 20:35 269 1 gusting 4 4.0
2020-Apr-04 20:20
2020-Apr-04 20:10 111
2020-Apr-04 19:55
2020-Apr-04 19:35 231 2 gusting 5 2.5
2020-Apr-04 19:30
2020-Apr-04 19:05 130 1 gusting 3 1.9
2020-Apr-04 19:00
2020-Apr-04 18:35 268 0 gusting 2 1.2
2020-Apr-04 18:20
2020-Apr-04 18:05 063 0 gusting 1 0.6
2020-Apr-04 17:55
2020-Apr-04 17:35 100 0 gusting 1 -0.0
2020-Apr-04 17:20
2020-Apr-04 17:10 174
2020-Apr-04 17:00
2020-Apr-04 16:35 173 0 gusting 1 -1.2
2020-Apr-04 16:20
2020-Apr-04 16:05 121 0 gusting 1 -1.5
2020-Apr-04 15:50
2020-Apr-04 15:35 151 0 gusting 1 -1.4
2020-Apr-04 15:20 151 0 gusting 1 -1.3
2020-Apr-04 15:05 323 0 gusting 0 -1.1
2020-Apr-04 15:00
2020-Apr-04 14:35 049 0 gusting 1 -1.1
2020-Apr-04 14:20
2020-Apr-04 14:05 166 0 gusting 1 -1.2
2020-Apr-04 13:50
2020-Apr-04 13:35 260 0 gusting 0 -1.1
2020-Apr-04 13:20
2020-Apr-04 13:05 270 0 gusting 0 -1.0
2020-Apr-04 12:50
2020-Apr-04 12:40 090
2020-Apr-04 12:20
2020-Apr-04 12:05 272 0 gusting 0 -0.7
2020-Apr-04 11:50
2020-Apr-04 11:40
2020-Apr-04 11:20
2020-Apr-04 11:10 331
2020-Apr-04 10:50
2020-Apr-04 10:40 093
2020-Apr-04 10:20
2020-Apr-04 10:05 098 0 gusting 1 -1.2
2020-Apr-04 09:50
2020-Apr-04 09:40 014
2020-Apr-04 09:20
2020-Apr-04 09:05 179 0 gusting 0 -0.5
2020-Apr-04 08:50
2020-Apr-04 08:35 259 0 gusting 0 -0.3
2020-Apr-04 08:20
2020-Apr-04 08:10 294
2020-Apr-04 07:50
2020-Apr-04 07:35 271 0 gusting 1 -0.2
2020-Apr-04 07:20
2020-Apr-04 07:05 -0.2
2020-Apr-04 06:50
2020-Apr-04 06:35 -0.2
2020-Apr-04 06:20
2020-Apr-04 06:10 219
2020-Apr-04 05:50
2020-Apr-04 05:35 -0.1
2020-Apr-04 05:20
2020-Apr-04 05:05 300 0 gusting 3 -0.0
2020-Apr-04 04:50 292 0 gusting 3 -0.0
2020-Apr-04 04:40 262
2020-Apr-04 04:20
2020-Apr-04 04:05 108
2020-Apr-04 03:50
2020-Apr-04 03:35 257
2020-Apr-04 03:20
2020-Apr-04 03:05 324
2020-Apr-04 02:50
2020-Apr-04 02:35 244
2020-Apr-04 02:20
2020-Apr-04 02:05 233
2020-Apr-04 01:50
2020-Apr-04 01:35 228
2020-Apr-04 01:20
2020-Apr-04 01:05 215
2020-Apr-04 00:50
2020-Apr-04 00:35 167
2020-Apr-04 00:20
2020-Apr-04 00:10 1.4
2020-Apr-03 23:35 080
2020-Apr-03 23:20
2020-Apr-03 23:05 047
2020-Apr-03 22:50
2020-Apr-03 22:35 130
2020-Apr-03 22:20
2020-Apr-03 22:05 089
2020-Apr-03 21:50
2020-Apr-03 21:35 260
2020-Apr-03 21:30
2020-Apr-03 21:05 128
2020-Apr-03 20:50
2020-Apr-03 20:30 243 1 gusting 3 3.1
2020-Apr-03 20:05 084
2020-Apr-03 19:50
2020-Apr-03 19:35 106
2020-Apr-03 19:20
2020-Apr-03 19:05 109